Time;durP1;ratioP1;P1;durP2;ratioP2;P2;SDS_P1;SDS_P2;PMS_P1;PMS_P2;Temp;Humidity;BMP_temperature;BMP_pressure;BME280_temperature;BME280_humidity;BME280_pressure;Samples;Min_cycle;Max_cycle;Signal;HPM_P1;HPM_P2
2022/08/07 00:01:32;;;;;;;6.50;3.53;;;12.00;99.90;;;;;;5024096;28;20085;-58
2022/08/07 00:03:58;;;;;;;5.75;3.20;;;11.90;99.90;;;;;;5007592;28;20056;-58
2022/08/07 00:06:24;;;;;;;4.13;3.72;;;11.90;99.90;;;;;;5014419;28;20412;-57
2022/08/07 00:08:50;;;;;;;8.27;3.53;;;11.90;99.90;;;;;;5024356;28;20325;-61
2022/08/07 00:11:16;;;;;;;10.32;3.60;;;11.90;99.90;;;;;;5025846;28;20064;-60
2022/08/07 00:13:44;;;;;;;9.05;4.10;;;11.80;99.90;;;;;;5026415;28;20049;-66
2022/08/07 00:16:10;;;;;;;4.28;3.35;;;11.80;99.90;;;;;;5024957;28;20065;-67
2022/08/07 00:18:36;;;;;;;3.28;2.97;;;11.70;99.90;;;;;;5020652;28;20088;-62
2022/08/07 00:21:05;;;;;;;8.02;3.40;;;11.60;99.90;;;;;;5004807;28;20053;-65
2022/08/07 00:23:36;;;;;;;4.45;3.30;;;11.50;99.90;;;;;;5007061;28;20046;-63
2022/08/07 00:26:04;;;;;;;5.03;3.22;;;11.50;99.90;;;;;;5016334;28;20116;-67
2022/08/07 00:28:30;;;;;;;7.07;3.75;;;11.40;99.90;;;;;;5008251;28;20037;-62
2022/08/07 00:30:56;;;;;;;5.30;3.80;;;11.50;99.90;;;;;;5026132;28;20041;-61
2022/08/07 00:33:25;;;;;;;6.25;4.20;;;11.40;99.90;;;;;;5024736;28;20042;-63
2022/08/07 00:35:52;;;;;;;10.10;4.28;;;11.40;99.90;;;;;;5020216;28;20042;-57
2022/08/07 00:38:18;;;;;;;6.38;4.07;;;11.40;99.90;;;;;;5007744;28;20056;-66
2022/08/07 00:40:44;;;;;;;12.35;4.65;;;11.30;99.90;;;;;;5010791;28;20396;-57
2022/08/07 00:43:11;;;;;;;5.65;3.90;;;11.30;99.90;;;;;;5008830;28;20046;-65
2022/08/07 00:45:39;;;;;;;4.30;3.83;;;11.30;99.90;;;;;;5015680;28;20404;-65
2022/08/07 00:48:06;;;;;;;5.50;3.80;;;11.20;99.90;;;;;;5029106;28;20037;-57
2022/08/07 00:50:32;;;;;;;7.35;4.47;;;11.20;99.90;;;;;;5028961;28;20403;-60
2022/08/07 00:52:58;;;;;;;4.55;4.03;;;11.10;99.90;;;;;;5029863;28;20504;-66
2022/08/07 00:55:24;;;;;;;8.93;4.57;;;11.20;99.90;;;;;;5027630;28;20049;-63
2022/08/07 00:57:50;;;;;;;9.63;5.15;;;11.10;99.90;;;;;;5019165;28;20073;-68
2022/08/07 01:00:18;;;;;;;8.20;5.03;;;11.20;99.90;;;;;;5004878;28;20053;-57
2022/08/07 01:02:45;;;;;;;5.95;4.78;;;11.20;99.90;;;;;;5029751;28;20099;-63
2022/08/07 01:05:11;;;;;;;8.20;4.95;;;11.30;99.90;;;;;;5023556;28;20041;-59
2022/08/07 01:07:38;;;;;;;7.72;4.30;;;11.30;99.90;;;;;;5029065;28;20415;-58
2022/08/07 01:10:05;;;;;;;8.50;4.57;;;11.20;99.90;;;;;;5011714;28;20503;-57
2022/08/07 01:12:31;;;;;;;5.22;4.30;;;11.20;99.90;;;;;;5026437;28;20065;-62
2022/08/07 01:14:58;;;;;;;7.68;5.75;;;11.20;99.90;;;;;;5029705;28;20488;-57
2022/08/07 01:17:25;;;;;;;7.85;4.22;;;11.20;99.90;;;;;;5026403;28;20041;-61
2022/08/07 01:19:54;;;;;;;6.25;4.60;;;11.20;99.90;;;;;;5011564;28;20054;-58
2022/08/07 01:22:21;;;;;;;7.47;4.57;;;11.30;99.90;;;;;;5028093;28;20048;-57
2022/08/07 01:24:47;;;;;;;4.82;4.22;;;11.30;99.90;;;;;;5028770;28;20484;-63
2022/08/07 01:27:14;;;;;;;9.43;5.13;;;11.30;99.90;;;;;;5011165;28;20387;-58
2022/08/07 01:29:41;;;;;;;5.78;4.53;;;11.30;99.90;;;;;;5024837;28;20515;-63
2022/08/07 01:32:07;;;;;;;4.43;4.03;;;11.30;99.90;;;;;;5020092;28;20061;-58
2022/08/07 01:34:33;;;;;;;5.93;4.88;;;11.30;99.90;;;;;;5027232;28;20435;-61
2022/08/07 01:37:00;;;;;;;6.65;4.22;;;11.40;99.90;;;;;;5029166;28;20046;-57
2022/08/07 01:39:26;;;;;;;5.82;4.50;;;11.40;99.90;;;;;;5026326;28;20167;-67
2022/08/07 01:41:53;;;;;;;8.57;4.18;;;11.40;99.90;;;;;;5011870;28;20124;-58
2022/08/07 01:44:19;;;;;;;8.63;4.80;;;11.40;99.90;;;;;;5008771;28;20034;-57
2022/08/07 01:46:45;;;;;;;5.07;4.40;;;11.40;99.90;;;;;;5008607;28;20104;-65
2022/08/07 01:49:11;;;;;;;6.15;4.55;;;11.40;99.90;;;;;;5016146;28;20049;-65
2022/08/07 01:51:40;;;;;;;9.40;4.97;;;11.40;99.90;;;;;;5027330;28;20052;-57
2022/08/07 01:54:09;;;;;;;5.00;4.25;;;11.30;99.90;;;;;;5021917;28;20053;-65
2022/08/07 01:57:00;;;;;;;7.90;5.15;;;11.30;99.90;;;;;;5025495;28;20049;-59
2022/08/07 01:59:46;;;;;;;5.35;4.35;;;11.30;99.90;;;;;;4998371;28;20065;-67
2022/08/07 02:02:19;;;;;;;5.68;4.88;;;11.30;99.90;;;;;;4994921;28;20477;-64
2022/08/07 02:04:53;;;;;;;5.00;4.07;;;11.30;99.90;;;;;;4954646;28;20405;-58
2022/08/07 02:07:22;;;;;;;13.50;5.05;;;11.30;99.90;;;;;;4988782;28;20078;-61
2022/08/07 02:09:51;;;;;;;8.20;4.78;;;11.30;99.90;;;;;;4995299;28;20112;-59
2022/08/07 02:12:19;;;;;;;6.13;4.73;;;11.30;99.90;;;;;;4993582;28;20092;-57
2022/08/07 02:14:50;;;;;;;4.97;3.92;;;11.30;99.90;;;;;;4971391;28;20093;-63
2022/08/07 02:17:16;;;;;;;10.05;4.30;;;11.30;99.90;;;;;;4987726;28;20069;-64
2022/08/07 02:19:44;;;;;;;6.15;4.05;;;11.30;99.90;;;;;;4988774;28;20042;-59
2022/08/07 02:22:12;;;;;;;5.32;4.47;;;11.30;99.90;;;;;;4977845;28;20054;-58
2022/08/07 02:24:43;;;;;;;4.65;4.25;;;11.20;99.90;;;;;;4988669;28;20050;-65
2022/08/07 02:27:11;;;;;;;8.50;4.75;;;11.20;99.90;;;;;;4978962;28;20043;-57
2022/08/07 02:29:38;;;;;;;4.63;3.95;;;11.20;99.90;;;;;;4969840;28;20058;-61
2022/08/07 02:32:10;;;;;;;6.28;4.45;;;11.20;99.90;;;;;;4994523;28;20046;-59
2022/08/07 02:34:38;;;;;;;5.93;4.88;;;11.20;99.90;;;;;;5000724;28;20053;-61
2022/08/07 02:37:07;;;;;;;6.47;4.28;;;11.20;99.90;;;;;;4971140;28;20084;-61
2022/08/07 02:39:35;;;;;;;5.40;4.70;;;11.20;99.90;;;;;;4969569;28;20055;-59
2022/08/07 02:42:02;;;;;;;4.53;4.05;;;11.20;99.90;;;;;;4990119;28;20504;-58
2022/08/07 02:44:30;;;;;;;5.13;4.50;;;11.30;99.90;;;;;;4986997;28;20590;-61
2022/08/07 02:46:58;;;;;;;6.95;5.05;;;11.30;99.90;;;;;;5000139;28;20428;-57
2022/08/07 02:49:24;;;;;;;6.40;5.30;;;11.30;99.90;;;;;;4988049;28;20108;-63
2022/08/07 02:51:51;;;;;;;11.35;4.93;;;11.30;99.90;;;;;;4969762;28;20412;-64
2022/08/07 02:54:19;;;;;;;7.80;5.35;;;11.30;99.90;;;;;;4954815;28;20065;-61
2022/08/07 02:56:46;;;;;;;7.63;4.88;;;11.30;99.90;;;;;;4987708;28;20061;-63
2022/08/07 02:59:18;;;;;;;10.65;5.10;;;11.30;99.90;;;;;;4981161;28;20774;-58
2022/08/07 03:01:45;;;;;;;6.07;4.97;;;11.20;99.90;;;;;;5005230;28;20058;-58
2022/08/07 03:04:12;;;;;;;9.90;4.45;;;11.20;99.90;;;;;;5006752;28;20125;-63
2022/08/07 03:06:41;;;;;;;6.05;4.75;;;11.10;99.90;;;;;;5006969;28;20081;-61
2022/08/07 03:09:08;;;;;;;4.88;4.30;;;11.10;99.90;;;;;;4988836;28;20049;-60
2022/08/07 03:11:35;;;;;;;6.75;5.15;;;11.00;99.90;;;;;;5007169;28;20071;-61
2022/08/07 03:14:04;;;;;;;5.80;4.63;;;11.00;99.90;;;;;;5005542;28;20050;-58
2022/08/07 03:16:34;;;;;;;5.13;4.63;;;11.00;99.90;;;;;;5006875;28;20038;-67
2022/08/07 03:19:00;;;;;;;6.80;5.20;;;10.90;99.90;;;;;;4988351;28;20089;-57
2022/08/07 03:21:27;;;;;;;6.30;4.80;;;10.90;99.90;;;;;;5007016;28;20057;-62
2022/08/07 03:23:55;;;;;;;4.80;4.22;;;10.90;99.90;;;;;;5007339;28;20049;-56
2022/08/07 03:26:25;;;;;;;8.40;5.63;;;10.80;99.90;;;;;;4996165;28;20041;-68
2022/08/07 03:28:53;;;;;;;7.50;5.13;;;10.80;99.90;;;;;;5007292;28;20591;-58
2022/08/07 03:31:21;;;;;;;12.10;6.68;;;10.80;99.90;;;;;;4987554;28;20050;-61
2022/08/07 03:34:07;;;;;;;6.75;5.78;;;10.80;99.90;;;;;;4989406;28;20100;-58
2022/08/07 03:36:33;;;;;;;10.85;5.82;;;10.70;99.90;;;;;;4997462;28;20065;-63
2022/08/07 03:39:06;;;;;;;7.45;5.45;;;10.80;99.90;;;;;;5006712;28;20554;-58
2022/08/07 03:41:33;;;;;;;9.02;5.93;;;10.80;99.90;;;;;;4989015;28;20187;-58
2022/08/07 03:43:59;;;;;;;9.73;5.63;;;10.80;99.90;;;;;;5005930;28;20042;-59
2022/08/07 03:46:26;;;;;;;12.52;6.35;;;10.80;99.90;;;;;;4999462;28;20054;-65
2022/08/07 03:48:52;;;;;;;8.43;5.63;;;10.80;99.90;;;;;;5005644;28;20073;-61
2022/08/07 03:51:19;;;;;;;9.13;5.57;;;10.80;99.90;;;;;;5006000;28;20522;-67
2022/08/07 03:53:46;;;;;;;7.43;5.88;;;10.80;99.90;;;;;;4991881;28;20050;-57
2022/08/07 03:56:15;;;;;;;8.45;5.80;;;10.80;99.90;;;;;;5001472;28;20046;-64
2022/08/07 03:58:41;;;;;;;9.05;5.95;;;10.80;99.90;;;;;;5005148;28;20069;-63
2022/08/07 04:01:09;;;;;;;6.40;5.80;;;10.80;99.90;;;;;;5004401;28;20054;-61
2022/08/07 04:03:35;;;;;;;7.78;5.90;;;10.80;99.90;;;;;;4988599;28;20563;-61
2022/08/07 04:06:01;;;;;;;11.55;5.20;;;10.80;99.90;;;;;;4988081;28;20109;-61
2022/08/07 04:08:27;;;;;;;7.65;4.80;;;10.60;99.90;;;;;;5005597;28;20050;-63
2022/08/07 04:10:53;;;;;;;7.20;5.13;;;10.60;99.90;;;;;;5005402;28;20050;-63
2022/08/07 04:13:20;;;;;;;9.23;5.38;;;10.60;99.90;;;;;;4991741;28;20052;-60
2022/08/07 04:15:46;;;;;;;6.53;4.78;;;10.60;99.90;;;;;;4991954;28;20048;-59
2022/08/07 04:18:14;;;;;;;8.18;5.15;;;10.60;99.90;;;;;;4991592;28;20133;-60
2022/08/07 04:20:41;;;;;;;9.48;5.30;;;10.50;99.90;;;;;;5008701;28;20042;-63
2022/08/07 04:23:09;;;;;;;;;;;10.50;99.90;;;;;;5006923;28;20046;-68
2022/08/07 04:25:39;;;;;;;8.35;4.72;;;10.50;99.90;;;;;;5009799;28;19922;-57
2022/08/07 04:28:05;;;;;;;;;;;10.60;99.90;;;;;;5009760;28;20338;-57
2022/08/07 04:30:33;;;;;;;9.75;5.88;;;10.60;99.90;;;;;;5009864;28;19921;-57
2022/08/07 04:33:09;;;;;;;9.55;6.10;;;10.60;99.90;;;;;;4977424;28;20049;-66
2022/08/07 04:35:38;;;;;;;10.48;6.72;;;10.70;99.90;;;;;;5009043;28;20049;-60
2022/08/07 04:38:08;;;;;;;7.07;6.05;;;10.70;99.90;;;;;;4992448;28;20046;-60
2022/08/07 04:40:37;;;;;;;11.52;5.30;;;10.70;99.90;;;;;;5008097;28;20056;-67
2022/08/07 04:43:03;;;;;;;6.60;4.93;;;10.80;99.90;;;;;;5009957;28;20045;-61
2022/08/07 04:45:54;;;;;;;11.38;5.65;;;10.80;99.90;;;;;;4971906;28;20536;-57
2022/08/07 04:48:35;;;;;;;7.00;5.05;;;10.80;99.90;;;;;;5005527;28;20038;-64
2022/08/07 04:51:26;;;;;;;9.48;5.47;;;10.80;99.90;;;;;;5003809;28;20050;-61
2022/08/07 04:54:21;;;;;;;7.60;5.55;;;10.80;99.90;;;;;;4990201;28;20065;-62
2022/08/07 04:57:00;;;;;;;9.50;5.50;;;10.80;99.90;;;;;;5008730;28;20044;-58
2022/08/07 04:59:51;;;;;;;6.28;5.68;;;10.90;99.90;;;;;;5009980;28;20068;-64
2022/08/07 05:02:25;;;;;;;10.25;5.90;;;10.90;99.90;;;;;;4988088;28;20412;-61
2022/08/07 05:05:21;;;;;;;7.32;5.47;;;11.00;99.90;;;;;;5009324;28;20053;-61
2022/08/07 05:08:06;;;;;;;10.20;6.10;;;11.10;99.90;;;;;;4999472;28;20049;-59
2022/08/07 05:10:44;;;;;;;9.38;6.05;;;11.10;99.90;;;;;;5007817;28;20473;-68
2022/08/07 05:13:24;;;;;;;6.88;5.68;;;11.20;99.90;;;;;;4991432;28;20057;-63
2022/08/07 05:15:52;;;;;;;6.43;5.82;;;11.30;99.90;;;;;;4990440;28;20335;-57
2022/08/07 05:18:33;;;;;;;10.55;6.05;;;11.40;99.90;;;;;;5009582;28;20194;-61
2022/08/07 05:21:02;;;;;;;6.18;5.43;;;11.50;99.90;;;;;;5009509;28;20249;-64
2022/08/07 05:23:44;;;;;;;8.70;6.00;;;11.60;99.90;;;;;;5007265;28;20480;-63
2022/08/07 05:26:15;;;;;;;9.23;6.20;;;11.70;99.90;;;;;;5009326;28;20042;-64
2022/08/07 05:28:41;;;;;;;7.90;6.30;;;11.70;99.90;;;;;;5008631;28;20433;-57
2022/08/07 05:31:10;;;;;;;12.80;6.68;;;11.90;99.90;;;;;;5008871;28;20069;-59
2022/08/07 05:33:36;;;;;;;12.18;6.32;;;12.00;99.90;;;;;;5002641;28;20045;-59
2022/08/07 05:36:05;;;;;;;6.63;5.50;;;12.10;99.90;;;;;;5008168;28;20933;-59
2022/08/07 05:38:32;;;;;;;14.80;7.00;;;12.30;99.90;;;;;;5009358;28;20048;-61
2022/08/07 05:40:58;;;;;;;11.23;6.70;;;12.50;99.90;;;;;;5007436;28;20531;-64
2022/08/07 05:43:24;;;;;;;10.13;6.55;;;12.60;99.90;;;;;;5006030;28;20034;-57
2022/08/07 05:45:51;;;;;;;12.07;6.32;;;12.80;99.90;;;;;;5007709;28;20056;-61
2022/08/07 05:48:18;;;;;;;12.70;6.97;;;12.90;99.90;;;;;;5009042;28;20046;-61
2022/08/07 05:50:44;;;;;;;10.00;6.30;;;13.00;99.90;;;;;;5008568;28;20435;-58
2022/08/07 05:53:10;;;;;;;8.60;6.53;;;13.10;99.90;;;;;;5007256;28;20472;-60
2022/08/07 05:55:37;;;;;;;12.55;7.20;;;13.20;99.90;;;;;;5008596;28;20495;-58
2022/08/07 05:58:05;;;;;;;9.02;6.40;;;13.30;99.90;;;;;;4990051;28;20073;-63
2022/08/07 06:00:33;;;;;;;11.45;6.95;;;13.40;99.90;;;;;;4999391;28;20092;-63
2022/08/07 06:03:02;;;;;;;10.88;6.88;;;13.40;99.90;;;;;;5027180;28;20380;-60
2022/08/07 06:05:30;;;;;;;8.85;6.65;;;13.50;99.90;;;;;;5017236;28;20183;-60
2022/08/07 06:07:59;;;;;;;10.63;7.03;;;13.50;99.90;;;;;;5009931;28;20100;-57
2022/08/07 06:10:26;;;;;;;8.80;7.30;;;13.50;99.90;;;;;;5028001;28;20117;-60
2022/08/07 06:12:52;;;;;;;7.38;5.78;;;13.50;99.90;;;;;;5010123;28;20288;-56
2022/08/07 06:15:19;;;;;;;12.52;6.57;;;13.60;99.90;;;;;;5017734;28;20064;-64
2022/08/07 06:17:46;;;;;;;9.93;6.55;;;13.60;99.90;;;;;;5025494;28;20044;-57
2022/08/07 06:20:12;;;;;;;9.23;6.78;;;13.70;99.90;;;;;;5027249;28;20463;-58
2022/08/07 06:22:42;;;;;;;7.90;6.25;;;13.70;99.90;;;;;;5010150;28;20129;-60
2022/08/07 06:25:08;;;;;;;7.95;6.18;;;13.80;99.90;;;;;;5026879;28;20055;-58
2022/08/07 06:27:34;;;;;;;17.02;6.13;;;13.80;99.90;;;;;;5027179;28;20053;-64
2022/08/07 06:30:00;;;;;;;9.80;6.05;;;13.80;99.90;;;;;;5027820;28;20526;-57
2022/08/07 06:32:26;;;;;;;7.15;5.32;;;14.00;99.90;;;;;;5027000;28;20041;-61
2022/08/07 06:34:51;;;;;;;20.98;7.05;;;14.10;99.90;;;;;;5008893;28;20093;-67
2022/08/07 06:37:17;;;;;;;7.68;5.90;;;14.20;99.90;;;;;;5001606;28;20045;-60
2022/08/07 06:39:43;;;;;;;10.32;6.60;;;14.30;99.90;;;;;;5027722;28;20550;-58
2022/08/07 06:42:11;;;;;;;11.10;5.13;;;14.40;99.90;;;;;;5008852;28;20045;-59
2022/08/07 06:44:39;;;;;;;9.48;6.30;;;14.50;99.90;;;;;;5009969;28;20049;-64
2022/08/07 06:47:05;;;;;;;7.10;5.72;;;14.60;99.90;;;;;;5021528;28;20045;-57
2022/08/07 06:49:32;;;;;;;7.43;5.75;;;14.70;99.90;;;;;;5026849;28;20046;-61
2022/08/07 06:52:00;;;;;;;13.00;6.65;;;14.90;99.90;;;;;;5027393;28;20045;-60
2022/08/07 06:54:27;;;;;;;7.40;6.25;;;15.00;99.90;;;;;;5026646;28;20530;-57
2022/08/07 06:56:54;;;;;;;4.95;4.53;;;15.10;99.90;;;;;;5023341;28;20037;-57
2022/08/07 06:59:24;;;;;;;10.48;5.10;;;15.30;99.90;;;;;;5024329;28;20053;-62
2022/08/07 07:01:51;;;;;;;6.88;4.43;;;15.40;99.90;;;;;;5007731;28;20057;-60
2022/08/07 07:04:24;;;;;;;7.68;4.70;;;15.60;99.90;;;;;;5016989;28;20064;-65
2022/08/07 07:06:50;;;;;;;4.40;4.00;;;15.70;99.90;;;;;;5026039;28;20045;-56
2022/08/07 07:09:26;;;;;;;7.20;3.60;;;15.90;99.90;;;;;;5009844;28;20045;-58
2022/08/07 07:12:07;;;;;;;4.13;3.72;;;16.10;99.90;;;;;;5008242;28;20045;-54
2022/08/07 07:14:55;;;;;;;5.03;3.50;;;16.30;99.90;;;;;;5025497;28;20045;-62
2022/08/07 07:17:33;;;;;;;4.47;4.07;;;16.60;99.90;;;;;;5008450;28;20103;-59
2022/08/07 07:20:01;;;;;;;4.97;3.65;;;16.90;99.90;;;;;;5023238;28;20393;-62
2022/08/07 07:22:28;;;;;;;7.03;4.40;;;17.10;99.90;;;;;;5026245;28;20064;-63
2022/08/07 07:24:54;;;;;;;4.13;3.67;;;17.50;99.90;;;;;;5007274;28;20056;-55
2022/08/07 07:27:24;;;;;;;6.95;3.85;;;17.80;99.20;;;;;;5026393;28;20492;-57
2022/08/07 07:29:55;;;;;;;6.57;3.88;;;18.10;95.70;;;;;;5021009;28;20076;-67
2022/08/07 07:32:23;;;;;;;4.72;3.53;;;18.50;93.10;;;;;;5023889;28;20037;-59
2022/08/07 07:34:54;;;;;;;7.47;3.70;;;18.80;81.10;;;;;;5005956;28;20080;-61
2022/08/07 07:37:23;;;;;;;4.13;3.17;;;19.10;82.50;;;;;;5022869;28;20052;-63
2022/08/07 07:39:52;;;;;;;2.83;2.60;;;19.40;81.90;;;;;;5004895;28;20087;-66
2022/08/07 07:42:24;;;;;;;2.50;2.30;;;19.80;68.10;;;;;;5021558;28;20052;-58
2022/08/07 07:44:52;;;;;;;4.22;2.13;;;20.00;67.60;;;;;;5004709;28;20049;-58
2022/08/07 07:47:21;;;;;;;4.45;1.90;;;20.30;65.40;;;;;;5005545;28;20053;-60
2022/08/07 07:49:53;;;;;;;2.40;2.20;;;20.50;50.20;;;;;;5023810;28;20124;-60
2022/08/07 07:52:21;;;;;;;2.58;2.10;;;20.70;38.70;;;;;;5026253;28;20097;-63
2022/08/07 07:54:49;;;;;;;2.25;1.70;;;20.80;40.70;;;;;;5024170;28;20042;-57
2022/08/07 07:57:17;;;;;;;2.67;2.40;;;20.90;38.80;;;;;;5007175;28;20046;-65
2022/08/07 07:59:44;;;;;;;3.58;2.55;;;21.10;37.00;;;;;;5024998;28;20139;-59
2022/08/07 08:02:11;;;;;;;5.28;2.80;;;21.30;31.60;;;;;;5005794;28;20041;-58
2022/08/07 08:04:38;;;;;;;6.95;2.33;;;21.50;25.80;;;;;;4988425;28;20085;-55
2022/08/07 08:07:04;;;;;;;2.60;2.40;;;21.60;32.00;;;;;;4999440;28;20046;-62
2022/08/07 08:09:32;;;;;;;2.65;2.45;;;21.80;21.30;;;;;;5006217;28;20049;-63
2022/08/07 08:12:02;;;;;;;2.80;2.60;;;21.90;17.30;;;;;;5001367;28;20355;-61
2022/08/07 08:14:28;;;;;;;;;;;22.10;18.30;;;;;;5003981;28;20062;-62
2022/08/07 08:16:57;;;;;;;4.18;2.90;;;22.10;15.70;;;;;;5000929;28;19921;-60
2022/08/07 08:19:26;;;;;;;2.60;2.40;;;22.00;14.10;;;;;;5004517;28;20050;-66
2022/08/07 08:27:33;;;;;;;3.15;2.78;;;21.80;10.20;;;;;;4996254;28;20050;-63
2022/08/07 08:30:12;;;;;;;5.40;3.03;;;21.30;16.70;;;;;;4985311;28;20045;-56
2022/08/07 08:32:57;;;;;;;8.30;2.63;;;21.30;16.40;;;;;;4985764;28;20050;-59
2022/08/07 08:35:26;;;;;;;5.00;2.40;;;21.40;18.50;;;;;;5001269;28;20049;-61
2022/08/07 08:37:57;;;;;;;2.22;2.05;;;21.60;24.70;;;;;;4999783;28;20074;-59
2022/08/07 08:40:30;;;;;;;2.58;2.38;;;22.00;19.90;;;;;;5004279;28;20073;-66
2022/08/07 08:43:20;;;;;;;2.60;1.90;;;22.00;10.80;;;;;;5001880;28;20492;-61
2022/08/07 08:46:00;;;;;;;2.58;1.88;;;22.10;9.90;;;;;;5002947;28;20409;-51
2022/08/07 08:48:55;;;;;;;3.80;1.77;;;22.40;11.70;;;;;;5002622;28;20057;-64
2022/08/07 08:51:32;;;;;;;1.98;1.88;;;22.70;7.40;;;;;;4960133;28;20050;-64
2022/08/07 08:54:06;;;;;;;3.28;2.20;;;22.80;7.40;;;;;;4959710;28;20046;-65
2022/08/07 08:56:36;;;;;;;2.08;1.88;;;22.60;4.40;;;;;;4999310;28;20406;-67
2022/08/07 08:59:07;;;;;;;;;;;22.40;9.30;;;;;;5003319;28;20037;-62
2022/08/07 09:01:43;;;;;;;2.05;1.80;;;22.30;9.70;;;;;;5004221;28;19921;-63
2022/08/07 09:04:25;;;;;;;2.13;1.92;;;22.40;6.60;;;;;;5005908;28;20427;-62
2022/08/07 09:07:13;;;;;;;3.15;2.20;;;22.50;3.60;;;;;;5027131;28;20073;-62
2022/08/07 09:09:59;;;;;;;1.90;1.80;;;22.60;4.90;;;;;;5025237;28;20136;-56
2022/08/07 09:12:39;;;;;;;1.80;1.70;;;22.10;4.10;;;;;;5025424;28;20455;-60
2022/08/07 09:15:23;;;;;;;2.42;1.90;;;21.60;4.40;;;;;;4992863;28;20056;-60
2022/08/07 09:18:26;;;;;;;5.75;1.52;;;21.30;3.60;;;;;;5025590;28;20052;-57
2022/08/07 09:21:36;;;;;;;1.67;1.50;;;21.30;14.30;;;;;;5025420;28;20283;-57
2022/08/07 09:24:10;;;;;;;9.20;1.88;;;21.60;3.00;;;;;;4923669;29;20055;-67
2022/08/07 09:26:43;;;;;;;1.85;1.60;;;21.90;5.20;;;;;;4945558;29;20122;-59
2022/08/07 09:29:21;;;;;;;2.35;1.63;;;22.20;4.40;;;;;;4988257;28;20520;-64
2022/08/07 09:31:55;;;;;;;1.13;1.13;;;21.80;1.00;;;;;;5021463;28;20062;-58
2022/08/07 09:34:54;;;;;;;2.10;1.48;;;21.70;3.60;;;;;;5020925;28;20068;-60
2022/08/07 09:37:32;;;;;;;1.38;1.27;;;21.60;7.70;;;;;;5024624;28;20037;-62
2022/08/07 09:40:14;;;;;;;3.15;1.40;;;21.50;4.70;;;;;;5007299;28;20083;-67
2022/08/07 09:43:18;;;;;;;3.47;1.48;;;21.50;1.50;;;;;;5024481;28;20107;-59
2022/08/07 09:45:45;;;;;;;5.15;1.50;;;21.70;3.40;;;;;;5025145;28;20451;-63
2022/08/07 09:48:26;;;;;;;2.72;1.30;;;21.80;2.20;;;;;;5025098;28;20037;-59
2022/08/07 09:51:30;;;;;;;1.77;1.65;;;22.00;1.60;;;;;;5006754;28;20555;-66
2022/08/07 09:53:59;;;;;;;3.15;1.38;;;22.10;3.50;;;;;;5024168;28;20053;-63
2022/08/07 09:56:46;;;;;;;3.50;1.55;;;22.00;2.40;;;;;;5024119;28;20313;-62
2022/08/07 09:59:40;;;;;;;4.40;1.75;;;21.70;8.00;;;;;;5023855;28;20077;-61
2022/08/07 10:02:18;;;;;;;1.83;1.48;;;21.20;4.30;;;;;;4988109;28;20054;-67
2022/08/07 10:05:06;;;;;;;4.43;1.65;;;21.10;4.30;;;;;;5005335;28;20053;-63
2022/08/07 10:08:01;;;;;;;1.67;1.30;;;20.80;7.40;;;;;;5006900;28;20405;-60
2022/08/07 10:10:45;;;;;;;1.75;1.50;;;20.90;3.20;;;;;;4969260;28;20129;-60
2022/08/07 10:13:27;;;;;;;1.75;1.40;;;20.80;4.80;;;;;;4985781;28;20133;-61
2022/08/07 10:16:18;;;;;;;1.20;1.10;;;20.90;5.30;;;;;;5022761;28;20046;-64
2022/08/07 10:19:02;;;;;;;1.73;1.33;;;20.90;4.50;;;;;;4997871;28;20057;-57
2022/08/07 10:21:47;;;;;;;2.38;1.20;;;21.10;1.20;;;;;;4994545;28;20115;-62
2022/08/07 10:24:44;;;;;;;0.90;0.90;;;20.90;2.20;;;;;;5021180;28;20033;-62
2022/08/07 10:27:28;;;;;;;0.88;0.88;;;20.80;1.00;;;;;;5014798;28;20084;-62
2022/08/07 10:29:54;;;;;;;1.55;1.30;;;20.70;1.90;;;;;;5024635;28;20045;-67
2022/08/07 10:32:43;;;;;;;1.35;1.30;;;20.90;1.10;;;;;;5000309;28;20117;-65
2022/08/07 10:35:31;;;;;;;4.47;1.33;;;21.00;3.50;;;;;;5007555;28;20364;-67
2022/08/07 10:38:02;;;;;;;4.63;1.40;;;20.70;4.70;;;;;;5015613;28;20506;-61
2022/08/07 10:40:59;;;;;;;2.75;1.20;;;20.80;5.40;;;;;;5023288;28;20045;-56
2022/08/07 10:43:32;;;;;;;2.20;1.05;;;21.10;7.00;;;;;;4978440;28;20049;-59
2022/08/07 10:46:00;;;;;;;1.45;1.30;;;21.50;1.20;;;;;;5011162;28;20661;-59
2022/08/07 10:48:47;;;;;;;1.20;1.20;;;21.70;4.30;;;;;;5012274;28;20049;-62
2022/08/07 10:51:35;;;;;;;1.58;0.90;;;21.80;4.60;;;;;;5021785;28;20038;-60
2022/08/07 10:54:11;;;;;;;0.87;0.87;;;21.80;1.00;;;;;;4986430;28;20057;-59
2022/08/07 10:57:09;;;;;;;1.67;1.52;;;22.00;1.00;;;;;;5006690;28;20281;-67
2022/08/07 11:00:07;;;;;;;2.50;1.50;;;22.10;2.40;;;;;;4987978;28;20505;-66
2022/08/07 11:02:36;;;;;;;3.53;1.58;;;22.00;2.80;;;;;;5002682;28;20057;-59
2022/08/07 11:05:23;;;;;;;1.48;1.33;;;22.00;1.00;;;;;;5003890;28;20053;-57
2022/08/07 11:08:07;;;;;;;1.83;1.30;;;21.90;1.60;;;;;;5005685;28;20058;-62
2022/08/07 11:10:46;;;;;;;1.50;1.40;;;21.70;4.40;;;;;;4987033;28;20459;-57
2022/08/07 11:13:31;;;;;;;1.20;1.20;;;21.40;1.00;;;;;;4988818;28;20057;-56
2022/08/07 11:16:04;;;;;;;1.63;1.30;;;21.40;1.40;;;;;;5007251;28;20037;-57
2022/08/07 11:18:45;;;;;;;1.42;1.10;;;21.40;1.90;;;;;;5003574;28;20077;-65
2022/08/07 11:21:30;;;;;;;1.25;1.00;;;21.50;1.00;;;;;;4988886;28;20042;-67
2022/08/07 11:24:06;;;;;;;1.63;1.35;;;21.50;1.00;;;;;;4988929;28;20065;-67
2022/08/07 11:26:40;;;;;;;2.33;1.58;;;21.50;1.00;;;;;;4996656;28;20060;-61
2022/08/07 11:29:13;;;;;;;1.85;1.13;;;21.50;1.00;;;;;;5007075;28;20395;-62
2022/08/07 11:31:56;;;;;;;1.55;1.02;;;21.40;1.00;;;;;;4988254;28;20053;-57
2022/08/07 11:34:48;;;;;;;2.35;1.30;;;21.30;2.80;;;;;;4988064;28;20052;-59
2022/08/07 11:37:32;;;;;;;1.00;1.00;;;21.50;3.20;;;;;;5002188;28;20125;-63
2022/08/07 11:40:34;;;;;;;1.38;1.27;;;21.70;1.00;;;;;;5005840;28;20073;-56
2022/08/07 11:43:24;;;;;;;1.40;1.30;;;21.70;1.00;;;;;;4984813;28;20054;-57
2022/08/07 11:46:08;;;;;;;1.00;1.00;;;21.60;1.00;;;;;;5001786;28;20413;-58
2022/08/07 11:48:59;;;;;;;0.98;0.98;;;21.50;1.00;;;;;;5005555;28;20404;-57
2022/08/07 11:51:50;;;;;;;4.03;1.10;;;21.60;1.00;;;;;;5006060;28;20042;-59
2022/08/07 11:54:32;;;;;;;1.65;1.00;;;21.70;1.00;;;;;;5006858;28;20440;-59
2022/08/07 11:57:10;;;;;;;1.10;0.90;;;21.70;1.00;;;;;;5004911;28;20488;-60
2022/08/07 12:00:06;;;;;;;1.30;1.20;;;21.80;1.00;;;;;;5006675;28;20532;-59
2022/08/07 12:02:35;;;;;;;1.13;1.02;;;21.90;1.00;;;;;;5005971;28;20076;-61
2022/08/07 12:05:06;;;;;;;1.10;1.10;;;22.00;1.00;;;;;;5005452;28;20046;-61
2022/08/07 12:07:55;;;;;;;2.10;1.05;;;22.00;1.00;;;;;;5005662;28;20496;-58
2022/08/07 12:10:29;;;;;;;1.30;1.20;;;21.80;1.00;;;;;;5002093;28;20124;-63
2022/08/07 12:13:23;;;;;;;0.80;0.80;;;21.40;1.00;;;;;;4987728;28;20484;-65
2022/08/07 12:15:56;;;;;;;3.25;1.00;;;21.40;1.00;;;;;;5006256;28;20136;-63
2022/08/07 12:18:54;;;;;;;1.20;1.20;;;21.50;1.00;;;;;;4985148;28;20500;-63
2022/08/07 12:21:23;;;;;;;1.05;1.05;;;21.60;1.00;;;;;;4988599;28;20064;-58
2022/08/07 12:23:51;;;;;;;1.23;1.15;;;21.70;1.00;;;;;;4986758;28;20054;-64
2022/08/07 12:26:33;;;;;;;1.50;1.40;;;21.80;1.00;;;;;;4985669;28;20484;-60
2022/08/07 12:29:06;;;;;;;1.52;1.23;;;21.90;5.50;;;;;;5004157;28;20049;-68
2022/08/07 12:31:43;;;;;;;1.20;1.10;;;22.00;1.00;;;;;;5004343;28;20039;-65
2022/08/07 12:34:10;;;;;;;2.05;1.17;;;21.90;1.00;;;;;;5009485;28;20076;-59
2022/08/07 12:36:37;;;;;;;2.42;1.38;;;21.70;1.60;;;;;;5009456;28;20077;-67
2022/08/07 12:39:06;;;;;;;2.15;1.67;;;21.40;6.20;;;;;;5005731;28;20050;-61
2022/08/07 12:41:34;;;;;;;;;;;21.20;12.20;;;;;;5010368;28;20061;-67
2022/08/07 12:44:06;;;;;;;2.88;1.60;;;21.20;13.20;;;;;;5008604;28;19936;-66
2022/08/07 12:47:05;;;;;;;1.52;1.42;;;21.20;12.10;;;;;;5009594;28;20659;-60
2022/08/07 12:49:49;;;;;;;3.30;1.67;;;21.00;15.70;;;;;;4998278;28;20042;-62
2022/08/07 12:52:24;;;;;;;1.60;1.52;;;20.90;16.10;;;;;;5007222;28;20058;-65
2022/08/07 12:54:59;;;;;;;1.88;1.73;;;20.70;15.90;;;;;;4992262;28;20060;-63
2022/08/07 12:57:30;;;;;;;6.18;1.70;;;20.40;24.60;;;;;;4980114;28;20392;-67
2022/08/07 12:59:58;;;;;;;2.35;1.92;;;20.40;29.30;;;;;;5009182;28;20038;-58
2022/08/07 13:03:11;;;;;;;3.13;1.77;;;20.40;26.50;;;;;;5025691;28;20460;-57
2022/08/07 13:06:14;;;;;;;1.70;1.38;;;20.30;25.10;;;;;;4974743;28;20385;-60
2022/08/07 13:09:10;;;;;;;6.32;1.70;;;20.10;30.50;;;;;;5028601;28;20116;-59
2022/08/07 13:11:48;;;;;;;2.08;1.90;;;20.20;37.10;;;;;;5027454;28;20484;-58
2022/08/07 13:14:42;;;;;;;3.93;1.97;;;20.50;38.30;;;;;;5048039;28;20075;-66
2022/08/07 13:17:29;;;;;;;3.92;2.00;;;20.60;35.50;;;;;;5049518;28;20045;-59
2022/08/07 13:20:28;;;;;;;4.32;1.73;;;20.80;29.80;;;;;;5042039;28;20499;-59
2022/08/07 13:23:05;;;;;;;2.00;1.70;;;20.80;22.50;;;;;;5010352;28;20038;-63
2022/08/07 13:25:39;;;;;;;2.17;1.60;;;20.90;31.50;;;;;;5040527;28;20533;-60
2022/08/07 13:28:27;;;;;;;1.80;1.70;;;20.70;20.20;;;;;;5030355;28;20044;-58
2022/08/07 13:31:21;;;;;;;1.77;1.63;;;20.70;26.90;;;;;;5026025;28;20065;-57